Back to Top

Language: 

My Weather Underground Personal Weather Station Historical Data with Graphs...

Delerius Weather Station Historical Data
Daily Summary for February 14, 2017 Units:  Metric    English   Both
« Previous Day
Next Day »
Daily Weekly Monthly Yearly Custom
  High: Low: Average:
Temperature: 7.5 °C -0.2 °C 4.1 °C
Dew Point: 5.5 °C -0.7 °C 2.8 °C
Humidity: 98 % 80 % 92 %
Wind Speed: 12.9 km/h 0 km/h 3.1 km/h
Wind Gust: 20.9 km/h - -
Wind:- - ESE
Pressure: 1026 hPa 1023.2 hPa -
Precipitation: 0 mm    
Historical Graphs
 
 
Tabular Data for February 14, 2017
Time Temperature Dew Point Pressure Wind Wind Speed Wind Gust Humidity Rainfall Rate (Hourly) solar Conditions
00:00 2.9 °C 1.9 °C 1025.3 hPa ENE 8 km/h 8 km/h 93 % 0 mm 0 W/m2
00:05 2.8 °C 1.8 °C 1025.3 hPa NE 8 km/h 8 km/h 93 % 0 mm 0 W/m2
00:15 2.7 °C 1.8 °C 1024.9 hPa NE 8 km/h 8 km/h 94 % 0 mm 0 W/m2
00:25 2.7 °C 1.8 °C 1024.9 hPa ENE 6.4 km/h 6.4 km/h 94 % 0 mm 0 W/m2
00:30 2.6 °C 1.7 °C 1024.9 hPa ENE 4.8 km/h 4.8 km/h 94 % 0 mm 0 W/m2
00:40 2.6 °C 1.7 °C 1024.9 hPa ENE 3.2 km/h 6.4 km/h 94 % 0 mm 0 W/m2
00:45 2.5 °C 1.6 °C 1024.9 hPa ENE 3.2 km/h 6.4 km/h 94 % 0 mm 0 W/m2
00:55 2.4 °C 1.5 °C 1024.6 hPa ENE 3.2 km/h 8 km/h 94 % 0 mm 0 W/m2
01:00 2.4 °C 1.7 °C 1024.6 hPa East 3.2 km/h 6.4 km/h 95 % 0 mm 0 W/m2
01:05 2.3 °C 1.6 °C 1024.6 hPa NE 3.2 km/h 9.7 km/h 95 % 0 mm 0 W/m2
01:15 2.3 °C 1.6 °C 1024.6 hPa ENE 4.8 km/h 11.3 km/h 95 % 0 mm 0 W/m2
01:20 2.3 °C 1.6 °C 1024.6 hPa ENE 4.8 km/h 4.8 km/h 95 % 0 mm 0 W/m2
01:25 2.3 °C 1.6 °C 1024.3 hPa East 3.2 km/h 16.1 km/h 95 % 0 mm 0 W/m2
01:35 2.1 °C 1.4 °C 1024.6 hPa NE 1.6 km/h 16.1 km/h 95 % 0 mm 0 W/m2
01:40 2.1 °C 1.3 °C 1024.6 hPa East 1.6 km/h 1.6 km/h 95 % 0 mm 0 W/m2
01:50 1.9 °C 1.2 °C 1024.6 hPa East 1.6 km/h 1.6 km/h 95 % 0 mm 0 W/m2
02:00 1.8 °C 1.1 °C 1024.6 hPa ESE 1.6 km/h 16.1 km/h 95 % 0 mm 0 W/m2
02:10 1.9 °C 1.2 °C 1024.3 hPa ENE 3.2 km/h 16.1 km/h 95 % 0 mm 0 W/m2
02:15 1.8 °C 1.1 °C 1024.3 hPa ENE 1.6 km/h 16.1 km/h 95 % 0 mm 0 W/m2
02:20 1.8 °C 1.3 °C 1024.3 hPa SE 1.6 km/h 16.1 km/h 96 % 0 mm 0 W/m2
02:30 1.8 °C 1.3 °C 1024.3 hPa ESE 1.6 km/h 1.6 km/h 96 % 0 mm 0 W/m2
02:35 1.8 °C 1.2 °C 1024.3 hPa ESE 1.6 km/h 3.2 km/h 96 % 0 mm 0 W/m2
02:40 1.7 °C 1.2 °C 1024.3 hPa ENE 3.2 km/h 16.1 km/h 96 % 0 mm 0 W/m2
02:45 1.7 °C 1.2 °C 1024.3 hPa East 3.2 km/h 16.1 km/h 96 % 0 mm 0 W/m2
02:55 1.7 °C 1.1 °C 1024.3 hPa East 1.6 km/h 16.1 km/h 96 % 0 mm 0 W/m2
03:00 1.7 °C 1.1 °C 1024.3 hPa ENE 1.6 km/h 1.6 km/h 96 % 0 mm 0 W/m2
03:05 1.6 °C 1.1 °C 1024.3 hPa Calm   16.1 km/h 96 % 0 mm 0 W/m2
03:15 1.5 °C 0.9 °C 1024.3 hPa Calm   16.1 km/h 96 % 0 mm 0 W/m2
03:20 1.3 °C 0.8 °C 1024.3 hPa Calm   16.1 km/h 96 % 0 mm 0 W/m2
03:25 1.2 °C 0.7 °C 1023.9 hPa Calm   16.1 km/h 96 % 0 mm 0 W/m2
03:30 1.3 °C 0.7 °C 1023.9 hPa East 1.6 km/h 16.1 km/h 96 % 0 mm 0 W/m2
03:40 1.4 °C 0.8 °C 1023.9 hPa NE 1.6 km/h 16.1 km/h 96 % 0 mm 0 W/m2
03:45 1.6 °C 1 °C 1023.9 hPa East 4.8 km/h 16.1 km/h 96 % 0 mm 0 W/m2
03:50 1.7 °C 1.2 °C 1023.6 hPa ENE 6.4 km/h 16.1 km/h 97 % 0 mm 0 W/m2
03:55 1.7 °C 1.3 °C 1023.6 hPa East 6.4 km/h 16.1 km/h 97 % 0 mm 0 W/m2
04:05 1.5 °C 0.9 °C 1023.9 hPa Calm   16.1 km/h 96 % 0 mm 0 W/m2
04:10 1.2 °C 0.7 °C 1023.6 hPa Calm   16.1 km/h 96 % 0 mm 0 W/m2
04:15 1 °C 0.4 °C 1023.6 hPa Calm   16.1 km/h 96 % 0 mm 0 W/m2
04:20 0.9 °C 0.4 °C 1023.6 hPa East 1.6 km/h 1.6 km/h 96 % 0 mm 0 W/m2
04:25 0.9 °C 0.3 °C 1023.6 hPa Calm   16.1 km/h 96 % 0 mm 0 W/m2
04:35 0.7 °C 0.2 °C 1023.6 hPa Calm   16.1 km/h 96 % 0 mm 0 W/m2
04:40 0.6 °C 0.1 °C 1023.6 hPa Calm   16.1 km/h 96 % 0 mm 0 W/m2
04:45 0.7 °C 0.3 °C 1023.6 hPa ENE 1.6 km/h 16.1 km/h 97 % 0 mm 0 W/m2
04:50 0.9 °C 0.5 °C 1023.6 hPa East 3.2 km/h 16.1 km/h 97 % 0 mm 0 W/m2
05:05 1.3 °C 0.8 °C 1023.6 hPa ESE 4.8 km/h 16.1 km/h 97 % 0 mm 0 W/m2
05:10 1.3 °C 0.8 °C 1023.6 hPa ESE 3.2 km/h 3.2 km/h 97 % 0 mm 0 W/m2
05:15 1.3 °C 0.8 °C 1023.6 hPa ESE 3.2 km/h 16.1 km/h 97 % 0 mm 0 W/m2
05:20 1.2 °C 0.8 °C 1023.6 hPa ESE 1.6 km/h 1.6 km/h 97 % 0 mm 0 W/m2
05:30 0.8 °C 0.3 °C 1023.6 hPa Calm   16.1 km/h 96 % 0 mm 0 W/m2
05:35 0.7 °C 0.1 °C 1023.6 hPa Calm   16.1 km/h 96 % 0 mm 0 W/m2
05:40 0.6 °C 0.1 °C 1023.6 hPa Calm   16.1 km/h 96 % 0 mm 0 W/m2
05:45 0.7 °C 0.3 °C 1023.6 hPa ESE 1.6 km/h 16.1 km/h 97 % 0 mm 0 W/m2
05:55 0.8 °C 0.3 °C 1023.6 hPa ENE 1.6 km/h 16.1 km/h 97 % 0 mm 0 W/m2
06:00 0.8 °C 0.3 °C 1023.2 hPa ENE 3.2 km/h 3.2 km/h 97 % 0 mm 0 W/m2
06:05 0.8 °C 0.3 °C 1023.2 hPa East 3.2 km/h 16.1 km/h 97 % 0 mm 0 W/m2
06:15 0.8 °C 0.4 °C 1023.2 hPa East 3.2 km/h 16.1 km/h 97 % 0 mm 0 W/m2
06:20 0.9 °C 0.4 °C 1023.2 hPa East 3.2 km/h 16.1 km/h 97 % 0 mm 0 W/m2
06:25 0.9 °C 0.4 °C 1023.2 hPa ENE 4.8 km/h 16.1 km/h 97 % 0 mm 0 W/m2
06:30 0.9 °C 0.4 °C 1023.2 hPa East 4.8 km/h 16.1 km/h 97 % 0 mm 0 W/m2
06:40 0.9 °C 0.5 °C 1023.2 hPa SE 3.2 km/h 3.2 km/h 97 % 0 mm 0 W/m2
06:45 0.9 °C 0.5 °C 1023.2 hPa East 1.6 km/h 6.4 km/h 97 % 0 mm 0 W/m2
06:50 0.9 °C 0.4 °C 1023.2 hPa ESE 1.6 km/h 1.6 km/h 97 % 0 mm 0 W/m2
06:55 0.9 °C 0.4 °C 1023.2 hPa ENE 3.2 km/h 3.2 km/h 97 % 0 mm 0 W/m2
07:05 0.9 °C 0.4 °C 1023.6 hPa East 1.6 km/h 16.1 km/h 97 % 0 mm 0 W/m2
07:10 0.8 °C 0.4 °C 1023.6 hPa Calm   16.1 km/h 97 % 0 mm 0 W/m2
07:15 0.7 °C 0.3 °C 1023.6 hPa Calm   16.1 km/h 97 % 0 mm 0 W/m2
07:25 0.7 °C 0.2 °C 1023.6 hPa Calm   16.1 km/h 97 % 0 mm 5 W/m2
07:30 0.6 °C 0.1 °C 1023.9 hPa Calm   16.1 km/h 97 % 0 mm 5 W/m2
07:35 0.4 °C -0.1 °C 1023.9 hPa Calm   16.1 km/h 97 % 0 mm 9 W/m2
07:45 0.1 °C -0.5 °C 1023.9 hPa Calm   16.1 km/h 96 % 0 mm 14 W/m2
07:50 0 °C -0.4 °C 1023.9 hPa Calm   16.1 km/h 97 % 0 mm 18 W/m2
07:55 -0.1 °C -0.5 °C 1023.9 hPa Calm   16.1 km/h 97 % 0 mm 23 W/m2
08:00 -0.1 °C -0.6 °C 1023.9 hPa Calm   16.1 km/h 97 % 0 mm 28 W/m2
08:05 -0.2 °C -0.6 °C 1023.9 hPa Calm   16.1 km/h 97 % 0 mm 32 W/m2
08:15 -0.2 °C -0.7 °C 1023.9 hPa Calm   16.1 km/h 97 % 0 mm 46 W/m2
08:20 -0.2 °C -0.7 °C 1023.9 hPa Calm   16.1 km/h 97 % 0 mm 53 W/m2
08:30 -0.1 °C -0.6 °C 1023.9 hPa Calm   16.1 km/h 97 % 0 mm 65 W/m2
08:35 0 °C -0.4 °C 1023.9 hPa Calm   16.1 km/h 97 % 0 mm 70 W/m2
08:40 0.1 °C -0.3 °C 1023.9 hPa Calm   16.1 km/h 97 % 0 mm 79 W/m2
08:45 0.2 °C -0.2 °C 1023.9 hPa Calm   16.1 km/h 97 % 0 mm 88 W/m2
08:50 0.4 °C 0.1 °C 1023.9 hPa Calm   16.1 km/h 98 % 0 mm 93 W/m2
09:00 1 °C 0.7 °C 1024.3 hPa Calm   16.1 km/h 98 % 0 mm 116 W/m2
09:05 1.3 °C 1 °C 1023.9 hPa Calm   16.1 km/h 98 % 0 mm 128 W/m2
09:10 1.4 °C 1.2 °C 1024.3 hPa Calm   16.1 km/h 98 % 0 mm 137 W/m2
09:15 1.6 °C 1.3 °C 1023.9 hPa Calm   16.1 km/h 98 % 0 mm 142 W/m2
09:25 1.9 °C 1.7 °C 1024.3 hPa ESE 1.6 km/h 16.1 km/h 98 % 0 mm 135 W/m2
09:30 2.1 °C 1.8 °C 1024.3 hPa ESE 1.6 km/h 1.6 km/h 98 % 0 mm 165 W/m2
09:35 2 °C 1.7 °C 1024.3 hPa Calm   16.1 km/h 98 % 0 mm 178 W/m2
09:45 2.2 °C 1.9 °C 1024.3 hPa Calm   16.1 km/h 98 % 0 mm 195 W/m2
09:50 2.4 °C 2.1 °C 1024.3 hPa SE 1.6 km/h 16.1 km/h 98 % 0 mm 192 W/m2
09:55 2.6 °C 2.3 °C 1024.3 hPa East 1.6 km/h 16.1 km/h 98 % 0 mm 213 W/m2
10:00 2.8 °C 2.5 °C 1024.3 hPa SE 3.2 km/h 3.2 km/h 98 % 0 mm 214 W/m2
10:05 2.9 °C 2.6 °C 1024.6 hPa SSE 3.2 km/h 8 km/h 98 % 0 mm 234 W/m2
10:15 3.1 °C 2.8 °C 1024.6 hPa East 6.4 km/h 9.7 km/h 98 % 0 mm 199 W/m2
10:20 3.2 °C 2.9 °C 1024.6 hPa ESE 8 km/h 16.1 km/h 98 % 0 mm 244 W/m2
10:25 3.2 °C 2.8 °C 1024.6 hPa ESE 8 km/h 16.1 km/h 97 % 0 mm 265 W/m2
10:35 3.4 °C 2.9 °C 1024.6 hPa ESE 11.3 km/h 11.3 km/h 97 % 0 mm 287 W/m2
10:40 3.6 °C 3.2 °C 1024.6 hPa ENE 9.7 km/h 16.1 km/h 97 % 0 mm 290 W/m2
10:45 3.7 °C 3.2 °C 1024.6 hPa ESE 9.7 km/h 16.1 km/h 96 % 0 mm 313 W/m2
10:50 3.9 °C 3.2 °C 1024.6 hPa East 9.7 km/h 16.1 km/h 95 % 0 mm 316 W/m2
10:55 4 °C 3.1 °C 1024.3 hPa ESE 8 km/h 16.1 km/h 94 % 0 mm 343 W/m2
11:05 4.3 °C 3.3 °C 1024.3 hPa ESE 9.7 km/h 16.1 km/h 93 % 0 mm 327 W/m2
11:10 4.6 °C 3.4 °C 1024.3 hPa ENE 8 km/h 16.1 km/h 92 % 0 mm 330 W/m2
11:15 4.7 °C 3.4 °C 1024.3 hPa ESE 8 km/h 16.1 km/h 91 % 0 mm 420 W/m2
11:20 4.8 °C 3.4 °C 1024.3 hPa ESE 9.7 km/h 9.7 km/h 91 % 0 mm 371 W/m2
11:30 4.9 °C 3.3 °C 1024.3 hPa SE 11.3 km/h 16.1 km/h 89 % 0 mm 185 W/m2
11:35 4.9 °C 3.1 °C 1024.3 hPa SE 11.3 km/h 16.1 km/h 88 % 0 mm 220 W/m2
11:40 4.9 °C 3.1 °C 1024.3 hPa SE 9.7 km/h 16.1 km/h 88 % 0 mm 204 W/m2
11:45 4.8 °C 3 °C 1024.3 hPa ESE 11.3 km/h 16.1 km/h 88 % 0 mm 149 W/m2
11:55 4.8 °C 3 °C 1024.3 hPa ESE 9.7 km/h 16.1 km/h 88 % 0 mm 149 W/m2
12:05 4.9 °C 3.1 °C 1024.3 hPa SE 8 km/h 16.1 km/h 88 % 0 mm 153 W/m2
12:10 5 °C 3.2 °C 1024.3 hPa SE 6.4 km/h 20.9 km/h 88 % 0 mm 186 W/m2
12:20 5 °C 3 °C 1024.3 hPa SE 12.9 km/h 16.1 km/h 87 % 0 mm 178 W/m2
12:25 5.1 °C 3.1 °C 1024.3 hPa SE 12.9 km/h 16.1 km/h 87 % 0 mm 172 W/m2
12:30 5.2 °C 3.2 °C 1024.3 hPa ESE 9.7 km/h 9.7 km/h 87 % 0 mm 193 W/m2
12:35 5.2 °C 3.1 °C 1024.3 hPa SE 9.7 km/h 16.1 km/h 86 % 0 mm 199 W/m2
12:40 5.2 °C 3.1 °C 1024.3 hPa ESE 9.7 km/h 16.1 km/h 86 % 0 mm 181 W/m2
12:50 5.3 °C 3.2 °C 1024.3 hPa SE 9.7 km/h 9.7 km/h 86 % 0 mm 350 W/m2
12:55 5.6 °C 3.6 °C 1024.3 hPa SE 8 km/h 16.1 km/h 87 % 0 mm 320 W/m2
13:00 5.7 °C 3.6 °C 1024.3 hPa ESE 9.7 km/h 9.7 km/h 86 % 0 mm 262 W/m2
13:10 5.8 °C 3.7 °C 1024.3 hPa SE 8 km/h 16.1 km/h 86 % 0 mm 188 W/m2
13:15 5.9 °C 3.6 °C 1024.3 hPa SSE 9.7 km/h 16.1 km/h 85 % 0 mm 232 W/m2
13:20 5.9 °C 3.6 °C 1024.3 hPa SSE 9.7 km/h 16.1 km/h 85 % 0 mm 371 W/m2
13:35 6.2 °C 3.7 °C 1024.3 hPa ESE 11.3 km/h 16.1 km/h 84 % 0 mm 216 W/m2
13:40 6.2 °C 3.7 °C 1024.3 hPa SE 8 km/h 8 km/h 84 % 0 mm 158 W/m2
13:55 6.5 °C 4 °C 1024.3 hPa SE 9.7 km/h 16.1 km/h 84 % 0 mm 295 W/m2
14:05 6.8 °C 3.9 °C 1024.3 hPa ESE 6.4 km/h 16.1 km/h 82 % 0 mm 290 W/m2
14:15 6.9 °C 4 °C 1024.3 hPa South 6.4 km/h 16.1 km/h 82 % 0 mm 206 W/m2
14:20 6.9 °C 4.1 °C 1024.3 hPa SE 6.4 km/h 16.1 km/h 82 % 0 mm 274 W/m2
14:25 7.1 °C 4.2 °C 1024.3 hPa SE 4.8 km/h 16.1 km/h 82 % 0 mm 246 W/m2
14:30 7.2 °C 4.3 °C 1024.3 hPa ESE 3.2 km/h 16.1 km/h 82 % 0 mm 251 W/m2
14:40 7.4 °C 4.3 °C 1024.3 hPa SE 3.2 km/h 16.1 km/h 81 % 0 mm 232 W/m2
14:50 7.4 °C 4.2 °C 1024.3 hPa ESE 4.8 km/h 4.8 km/h 80 % 0 mm 236 W/m2
14:55 7.5 °C 4.4 °C 1024.3 hPa SE 6.4 km/h 6.4 km/h 81 % 0 mm 216 W/m2
15:00 7.5 °C 4.3 °C 1024.3 hPa ESE 6.4 km/h 16.1 km/h 80 % 0 mm 214 W/m2
15:10 7.5 °C 4.4 °C 1024.3 hPa ESE 8 km/h 16.1 km/h 81 % 0 mm 174 W/m2
15:15 7.4 °C 4.4 °C 1024.3 hPa ESE 8 km/h 16.1 km/h 81 % 0 mm 169 W/m2
15:20 7.4 °C 4.3 °C 1024.3 hPa ESE 8 km/h 16.1 km/h 81 % 0 mm 139 W/m2
15:35 7.2 °C 4.1 °C 1024.3 hPa ESE 8 km/h 16.1 km/h 81 % 0 mm 113 W/m2
15:40 7.1 °C 4.2 °C 1024.3 hPa ESE 8 km/h 8 km/h 82 % 0 mm 107 W/m2
15:45 7 °C 4.1 °C 1024.6 hPa ESE 6.4 km/h 16.1 km/h 82 % 0 mm 86 W/m2
15:50 7 °C 4.3 °C 1024.6 hPa SE 6.4 km/h 6.4 km/h 83 % 0 mm 76 W/m2
16:00 6.9 °C 4.2 °C 1024.6 hPa SE 8 km/h 16.1 km/h 83 % 0 mm 74 W/m2
16:05 6.8 °C 4.3 °C 1024.9 hPa ESE 6.4 km/h 16.1 km/h 84 % 0 mm 60 W/m2
16:10 6.8 °C 4.3 °C 1024.9 hPa SE 6.4 km/h 6.4 km/h 84 % 0 mm 40 W/m2
16:20 6.8 °C 4.3 °C 1024.9 hPa SE 6.4 km/h 16.1 km/h 84 % 0 mm 23 W/m2
16:25 6.7 °C 4.4 °C 1024.6 hPa East 6.4 km/h 16.1 km/h 85 % 0 mm 21 W/m2
16:30 6.7 °C 4.4 °C 1024.9 hPa SE 4.8 km/h 16.1 km/h 85 % 0 mm 21 W/m2
16:40 6.7 °C 4.4 °C 1024.9 hPa ESE 3.2 km/h 16.1 km/h 85 % 0 mm 9 W/m2
16:45 6.7 °C 4.4 °C 1024.6 hPa ESE 3.2 km/h 16.1 km/h 85 % 0 mm 9 W/m2
16:50 6.7 °C 4.4 °C 1024.6 hPa ESE 3.2 km/h 3.2 km/h 85 % 0 mm 9 W/m2
17:00 6.6 °C 4.4 °C 1024.6 hPa ESE 1.6 km/h 1.6 km/h 86 % 0 mm 5 W/m2
17:05 6.4 °C 4.3 °C 1024.6 hPa East 1.6 km/h 16.1 km/h 86 % 0 mm 0 W/m2
17:10 6.4 °C 4.3 °C 1024.6 hPa ESE 1.6 km/h 16.1 km/h 86 % 0 mm 0 W/m2
17:20 6.4 °C 4.4 °C 1024.9 hPa ESE 1.6 km/h 1.6 km/h 87 % 0 mm 0 W/m2
17:25 6.4 °C 4.4 °C 1024.9 hPa Calm   6.4 km/h 87 % 0 mm 0 W/m2
17:30 6.4 °C 4.4 °C 1024.9 hPa Calm   16.1 km/h 87 % 0 mm 0 W/m2
17:40 6.4 °C 4.6 °C 1025.3 hPa ESE 1.6 km/h 1.6 km/h 88 % 0 mm 0 W/m2
17:45 6.4 °C 4.4 °C 1025.3 hPa ESE 3.2 km/h 3.2 km/h 87 % 0 mm 0 W/m2
17:50 6.4 °C 4.4 °C 1025.3 hPa ESE 1.6 km/h 1.6 km/h 87 % 0 mm 0 W/m2
17:55 6.4 °C 4.6 °C 1025.6 hPa Calm   16.1 km/h 88 % 0 mm 0 W/m2
18:05 6.4 °C 4.6 °C 1025.3 hPa ESE 1.6 km/h 16.1 km/h 88 % 0 mm 0 W/m2
18:10 6.4 °C 4.6 °C 1025.3 hPa Calm   16.1 km/h 88 % 0 mm 0 W/m2
18:15 6.4 °C 4.6 °C 1025.3 hPa Calm   16.1 km/h 88 % 0 mm 0 W/m2
18:25 6.4 °C 4.6 °C 1025.3 hPa ESE 1.6 km/h 16.1 km/h 88 % 0 mm 0 W/m2
18:30 6.4 °C 4.6 °C 1025.3 hPa ESE 1.6 km/h 1.6 km/h 88 % 0 mm 0 W/m2
18:35 6.4 °C 4.8 °C 1025.3 hPa Calm   16.1 km/h 89 % 0 mm 0 W/m2
18:40 6.4 °C 4.8 °C 1025.3 hPa Calm   16.1 km/h 89 % 0 mm 0 W/m2
18:50 6.5 °C 4.7 °C 1025.3 hPa Calm   16.1 km/h 88 % 0 mm 0 W/m2
18:55 6.4 °C 4.8 °C 1025.6 hPa Calm   16.1 km/h 89 % 0 mm 0 W/m2
19:00 6.4 °C 4.8 °C 1025.6 hPa Calm   16.1 km/h 89 % 0 mm 0 W/m2
19:10 6.4 °C 4.8 °C 1025.3 hPa Calm   16.1 km/h 89 % 0 mm 0 W/m2
19:15 6.4 °C 4.7 °C 1025.3 hPa Calm   16.1 km/h 89 % 0 mm 0 W/m2
19:20 6.4 °C 4.7 °C 1025.3 hPa Calm   16.1 km/h 89 % 0 mm 0 W/m2
19:30 6.4 °C 4.7 °C 1025.3 hPa Calm   16.1 km/h 89 % 0 mm 0 W/m2
19:35 6.4 °C 4.9 °C 1025.3 hPa Calm   16.1 km/h 90 % 0 mm 0 W/m2
19:40 6.4 °C 4.9 °C 1025.3 hPa Calm   16.1 km/h 90 % 0 mm 0 W/m2
19:50 6.4 °C 4.9 °C 1025.3 hPa Calm   16.1 km/h 90 % 0 mm 0 W/m2
19:55 6.4 °C 4.9 °C 1025.3 hPa Calm   16.1 km/h 90 % 0 mm 0 W/m2
20:00 6.4 °C 4.9 °C 1025.3 hPa Calm   16.1 km/h 90 % 0 mm 0 W/m2
20:10 6.4 °C 4.9 °C 1025.3 hPa Calm   16.1 km/h 90 % 0 mm 0 W/m2
20:15 6.4 °C 4.9 °C 1025.3 hPa Calm   16.1 km/h 90 % 0 mm 0 W/m2
20:20 6.4 °C 4.9 °C 1025.3 hPa Calm   16.1 km/h 90 % 0 mm 0 W/m2
20:25 6.4 °C 4.9 °C 1025.3 hPa Calm   16.1 km/h 90 % 0 mm 0 W/m2
20:30 6.4 °C 4.9 °C 1025.3 hPa Calm   16.1 km/h 90 % 0 mm 0 W/m2
20:40 6.4 °C 5 °C 1025.3 hPa Calm   16.1 km/h 91 % 0 mm 0 W/m2
20:45 6.4 °C 5 °C 1025.3 hPa Calm   16.1 km/h 91 % 0 mm 0 W/m2
20:50 6.4 °C 4.9 °C 1025.3 hPa Calm   16.1 km/h 90 % 0 mm 0 W/m2
21:00 6.4 °C 5.1 °C 1025.3 hPa Calm   16.1 km/h 91 % 0 mm 0 W/m2
21:05 6.5 °C 5 °C 1025.6 hPa Calm   16.1 km/h 90 % 0 mm 0 W/m2
21:10 6.5 °C 5.1 °C 1025.6 hPa Calm   16.1 km/h 91 % 0 mm 0 W/m2
21:20 6.4 °C 4.9 °C 1025.6 hPa Calm   16.1 km/h 90 % 0 mm 0 W/m2
21:25 6.3 °C 4.9 °C 1025.6 hPa Calm   16.1 km/h 91 % 0 mm 0 W/m2
21:30 6.4 °C 5 °C 1025.6 hPa Calm   16.1 km/h 91 % 0 mm 0 W/m2
21:35 6.4 °C 5 °C 1025.6 hPa ESE 1.6 km/h 16.1 km/h 91 % 0 mm 0 W/m2
21:45 6.4 °C 5.1 °C 1025.3 hPa Calm   16.1 km/h 91 % 0 mm 0 W/m2
21:50 6.4 °C 5.1 °C 1025.3 hPa Calm   16.1 km/h 91 % 0 mm 0 W/m2
21:55 6.5 °C 5.1 °C 1025.3 hPa Calm   16.1 km/h 91 % 0 mm 0 W/m2
22:05 6.5 °C 5.1 °C 1025.6 hPa Calm   16.1 km/h 91 % 0 mm 0 W/m2
22:10 6.5 °C 5.1 °C 1025.6 hPa Calm   16.1 km/h 91 % 0 mm 0 W/m2
22:15 6.5 °C 5.1 °C 1025.6 hPa Calm   16.1 km/h 91 % 0 mm 0 W/m2
22:20 6.5 °C 5.1 °C 1025.6 hPa Calm   16.1 km/h 91 % 0 mm 0 W/m2
22:25 6.5 °C 5.1 °C 1025.6 hPa Calm   16.1 km/h 91 % 0 mm 0 W/m2
22:30 6.4 °C 5.1 °C 1025.6 hPa Calm   16.1 km/h 91 % 0 mm 0 W/m2
22:40 6.4 °C 5.1 °C 1025.3 hPa Calm   16.1 km/h 91 % 0 mm 0 W/m2
22:45 6.4 °C 5.1 °C 1025.6 hPa ESE 1.6 km/h 16.1 km/h 91 % 0 mm 0 W/m2
22:50 6.4 °C 5.2 °C 1025.6 hPa ESE 1.6 km/h 1.6 km/h 92 % 0 mm 0 W/m2
22:55 6.5 °C 5.3 °C 1025.6 hPa Calm   16.1 km/h 92 % 0 mm 0 W/m2
23:05 6.6 °C 5.3 °C 1025.6 hPa Calm   16.1 km/h 92 % 0 mm 0 W/m2
23:10 6.6 °C 5.4 °C 1025.6 hPa Calm   16.1 km/h 92 % 0 mm 0 W/m2
23:15 6.6 °C 5.4 °C 1025.6 hPa Calm   16.1 km/h 92 % 0 mm 0 W/m2
23:25 6.7 °C 5.4 °C 1025.6 hPa Calm   16.1 km/h 92 % 0 mm 0 W/m2
23:30 6.7 °C 5.4 °C 1025.6 hPa Calm   16.1 km/h 92 % 0 mm 0 W/m2
23:35 6.7 °C 5.5 °C 1025.6 hPa Calm   16.1 km/h 92 % 0 mm 0 W/m2
23:40 6.7 °C 5.5 °C 1026 hPa Calm   16.1 km/h 92 % 0 mm 0 W/m2
23:50 6.7 °C 5.5 °C 1026 hPa Calm   16.1 km/h 92 % 0 mm 0 W/m2
23:55 6.7 °C 5.5 °C 1026 hPa Calm   16.1 km/h 92 % 0 mm 0 W/m2
Delerius-Weather
Compliments of Weather Underground - 2 mb

Data updates at regular intervals.